createdAt,value
2019-03-21T00:01:34.166Z,102093.96
2019-03-21T00:04:05.206Z,102091.39
2019-03-21T00:06:32.982Z,102087.47
2019-03-21T00:09:00.773Z,102087.26
2019-03-21T00:11:39.325Z,102091.22
2019-03-21T00:14:13.989Z,102086.05
2019-03-21T00:16:41.754Z,102094.38
2019-03-21T00:19:09.553Z,102091.13
2019-03-21T00:21:37.330Z,102083.09
2019-03-21T00:24:05.170Z,102089.08
2019-03-21T00:26:32.940Z,102081.17
2019-03-21T00:29:00.726Z,102078.28
2019-03-21T00:31:28.518Z,102085.73
2019-03-21T00:33:56.331Z,102079.47
2019-03-21T00:36:24.098Z,102075.11
2019-03-21T00:38:51.887Z,102076.45
2019-03-21T00:41:19.663Z,102072.41
2019-03-21T00:43:47.455Z,102071.06
2019-03-21T00:46:15.233Z,102071.30
2019-03-21T00:48:43.030Z,102076.83
2019-03-21T00:51:10.796Z,102077.77
2019-03-21T00:53:38.597Z,102076.03
2019-03-21T00:56:06.374Z,102067.11
2019-03-21T00:58:34.163Z,102074.25
2019-03-21T01:01:01.950Z,102074.97
2019-03-21T01:03:29.747Z,102072.90
2019-03-21T01:05:57.517Z,102076.09
2019-03-21T01:08:25.314Z,102079.74
2019-03-21T01:10:53.127Z,102075.08
2019-03-21T01:13:21.238Z,102073.93
2019-03-21T01:15:49.030Z,102070.80
2019-03-21T01:18:16.830Z,102062.86
2019-03-21T01:20:44.598Z,102069.43
2019-03-21T01:23:12.366Z,102063.50
2019-03-21T01:25:44.465Z,102061.05
2019-03-21T01:28:12.270Z,102050.89
2019-03-21T01:30:40.187Z,102054.52
2019-03-21T01:33:07.958Z,102050.05
2019-03-21T01:35:36.139Z,102055.20
2019-03-21T01:38:03.905Z,102055.43
2019-03-21T01:40:32.538Z,102053.61
2019-03-21T01:43:00.305Z,102051.59
2019-03-21T01:45:28.101Z,102046.17
2019-03-21T01:47:55.879Z,102048.58
2019-03-21T01:50:23.874Z,102054.28
2019-03-21T01:52:51.634Z,102047.13
2019-03-21T01:55:19.418Z,102048.36
2019-03-21T01:57:47.194Z,102046.93
2019-03-21T02:00:18.397Z,102042.38
2019-03-21T02:02:47.145Z,102039.56
2019-03-21T02:05:14.946Z,102048.20
2019-03-21T02:07:42.724Z,102046.64
2019-03-21T02:10:12.411Z,102049.83
2019-03-21T02:12:40.286Z,102052.85
2019-03-21T02:15:09.182Z,102053.75
2019-03-21T02:17:36.946Z,102052.52
2019-03-21T02:20:05.073Z,102059.72
2019-03-21T02:22:32.833Z,102056.52
2019-03-21T02:25:00.618Z,102057.45
2019-03-21T02:27:28.393Z,102053.09
2019-03-21T02:29:56.186Z,102053.19
2019-03-21T02:32:23.955Z,102051.95
2019-03-21T02:34:51.746Z,102053.70
2019-03-21T02:37:19.519Z,102045.00
2019-03-21T02:39:58.887Z,102045.88
2019-03-21T02:42:15.137Z,102037.92
2019-03-21T02:44:42.944Z,102036.28
2019-03-21T02:47:10.684Z,102038.58
2019-03-21T02:49:38.474Z,102034.80
2019-03-21T02:52:06.242Z,102037.40
2019-03-21T02:54:34.019Z,102039.61
2019-03-21T02:57:01.799Z,102029.88
2019-03-21T02:59:29.597Z,102031.13
2019-03-21T03:01:57.411Z,102032.94
2019-03-21T03:04:25.197Z,102041.16
2019-03-21T03:06:52.968Z,102035.55
2019-03-21T03:09:20.747Z,102036.72
2019-03-21T03:11:48.558Z,102041.64
2019-03-21T03:14:16.327Z,102040.46
2019-03-21T03:16:44.165Z,102039.55
2019-03-21T03:19:11.942Z,102033.00
2019-03-21T03:21:39.740Z,102036.86
2019-03-21T03:24:08.179Z,102042.09
2019-03-21T03:26:35.972Z,102042.02
2019-03-21T03:29:03.766Z,102053.50
2019-03-21T03:31:31.626Z,102053.92
2019-03-21T03:33:59.382Z,102059.17
2019-03-21T03:36:27.175Z,102062.11
2019-03-21T03:38:54.934Z,102060.73
2019-03-21T03:41:22.764Z,102066.36
2019-03-21T03:43:50.539Z,102065.39
2019-03-21T03:46:18.376Z,102069.41
2019-03-21T03:48:46.122Z,102074.03
2019-03-21T03:51:13.899Z,102067.56
2019-03-21T03:53:42.648Z,102075.80
2019-03-21T03:56:09.476Z,102075.45
2019-03-21T03:58:38.476Z,102076.23
2019-03-21T04:01:06.303Z,102070.37
2019-03-21T04:03:34.178Z,102074.25
2019-03-21T04:06:01.969Z,102071.14
2019-03-21T04:08:29.753Z,102065.15
2019-03-21T04:10:57.661Z,102058.15
2019-03-21T04:13:25.439Z,102065.19
2019-03-21T04:15:54.058Z,102059.43
2019-03-21T04:18:21.174Z,102053.02
2019-03-21T04:20:49.349Z,102061.88
2019-03-21T04:23:17.809Z,102061.20
2019-03-21T04:25:49.646Z,102069.84
2019-03-21T04:28:17.415Z,102067.36
2019-03-21T04:30:46.376Z,102069.17
2019-03-21T04:33:14.174Z,102060.90
2019-03-21T04:35:41.981Z,102061.20
2019-03-21T04:38:09.810Z,102050.55
2019-03-21T04:40:37.662Z,102058.68
2019-03-21T04:43:05.466Z,102055.12
2019-03-21T04:45:33.251Z,102046.14
2019-03-21T04:48:01.094Z,102050.94
2019-03-21T04:50:28.975Z,102049.05
2019-03-21T04:52:56.714Z,102056.48
2019-03-21T04:55:24.499Z,102044.75
2019-03-21T04:57:52.286Z,102047.72
2019-03-21T05:00:22.666Z,102058.30
2019-03-21T05:02:51.658Z,102051.47
2019-03-21T05:05:19.430Z,102060.03
2019-03-21T05:07:47.230Z,102060.25
2019-03-21T05:10:15.059Z,102067.86
2019-03-21T05:12:42.845Z,102068.47
2019-03-21T05:15:13.439Z,102066.91
2019-03-21T05:17:41.285Z,102060.17
2019-03-21T05:20:11.505Z,102069.69
2019-03-21T05:22:39.305Z,102072.75
2019-03-21T05:25:08.490Z,102066.84
2019-03-21T05:27:36.298Z,102067.05
2019-03-21T05:30:05.362Z,102070.52
2019-03-21T05:32:33.157Z,102082.94
2019-03-21T05:35:00.941Z,102080.52
2019-03-21T05:37:28.730Z,102085.34
2019-03-21T05:39:56.510Z,102083.70
2019-03-21T05:42:25.049Z,102074.89
2019-03-21T05:44:52.817Z,102082.94
2019-03-21T05:47:20.610Z,102088.23
2019-03-21T05:49:48.390Z,102084.41
2019-03-21T05:52:16.301Z,102090.52
2019-03-21T05:54:44.078Z,102082.45
2019-03-21T05:57:11.871Z,102094.29
2019-03-21T05:59:39.673Z,102093.63
2019-03-21T06:02:07.461Z,102103.77
2019-03-21T06:04:35.233Z,102102.50
2019-03-21T06:07:12.360Z,102100.30
2019-03-21T06:09:40.166Z,102107.58
2019-03-21T06:12:08.059Z,102108.48
2019-03-21T06:14:37.474Z,102110.05
2019-03-21T06:17:05.317Z,102107.10
2019-03-21T06:19:46.758Z,102109.09
2019-03-21T06:22:32.531Z,102107.45
2019-03-21T06:25:24.675Z,102097.80
2019-03-21T06:27:52.443Z,102101.10
2019-03-21T06:30:20.209Z,102106.38
2019-03-21T06:32:47.998Z,102105.04
2019-03-21T06:35:19.547Z,102104.73
2019-03-21T06:37:47.346Z,102103.20
2019-03-21T06:40:15.120Z,102114.01
2019-03-21T06:42:42.917Z,102119.50
2019-03-21T06:45:10.686Z,102107.47
2019-03-21T06:47:38.954Z,102113.11
2019-03-21T06:50:06.721Z,102117.19
2019-03-21T06:52:34.547Z,102129.04
2019-03-21T06:55:02.344Z,102121.39
2019-03-21T06:57:30.163Z,102112.97
2019-03-21T06:59:57.979Z,102113.86
2019-03-21T07:02:25.759Z,102118.98
2019-03-21T07:04:53.539Z,102123.01
2019-03-21T07:07:21.690Z,102116.63
2019-03-21T07:09:49.490Z,102128.52
2019-03-21T07:12:17.295Z,102121.63
2019-03-21T07:14:45.082Z,102123.95
2019-03-21T07:17:12.870Z,102126.48
2019-03-21T07:19:40.644Z,102124.45
2019-03-21T07:22:08.550Z,102123.63
2019-03-21T07:24:36.326Z,102122.39
2019-03-21T07:27:04.130Z,102115.71
2019-03-21T07:29:31.914Z,102125.81
2019-03-21T07:31:59.722Z,102123.26
2019-03-21T07:34:27.528Z,102120.09
2019-03-21T07:36:55.326Z,102119.23
2019-03-21T07:39:23.109Z,102119.92
2019-03-21T07:41:50.939Z,102118.47
2019-03-21T07:44:18.754Z,102117.98
2019-03-21T07:46:46.675Z,102114.73
2019-03-21T07:49:14.502Z,102115.74
2019-03-21T07:51:44.968Z,102120.34
2019-03-21T07:54:10.095Z,102116.98
2019-03-21T07:56:37.897Z,102121.13
2019-03-21T07:59:05.674Z,102113.03
2019-03-21T08:01:33.543Z,102116.69
2019-03-21T08:04:03.054Z,102118.91
2019-03-21T08:06:29.123Z,102111.86
2019-03-21T08:08:56.890Z,102107.52
2019-03-21T08:11:24.695Z,102101.58
2019-03-21T08:13:52.479Z,102104.39
2019-03-21T08:16:20.262Z,102110.27
2019-03-21T08:18:48.049Z,102103.88
2019-03-21T08:21:15.836Z,102103.01
2019-03-21T08:23:43.606Z,102093.08
2019-03-21T08:26:11.394Z,102092.52
2019-03-21T08:28:39.170Z,102092.60
2019-03-21T08:31:15.323Z,102084.56
2019-03-21T08:33:43.290Z,102081.61
2019-03-21T08:36:11.106Z,102075.61
2019-03-21T08:38:38.905Z,102083.00
2019-03-21T08:41:06.752Z,102072.94
2019-03-21T08:43:34.548Z,102083.10
2019-03-21T08:46:02.333Z,102076.84
2019-03-21T08:48:30.123Z,102071.80
2019-03-21T08:51:07.604Z,102068.11
2019-03-21T08:53:25.718Z,102067.16
2019-03-21T08:55:53.486Z,102061.78
2019-03-21T08:58:21.282Z,102071.33
2019-03-21T09:00:49.105Z,102056.84
2019-03-21T09:03:16.907Z,102069.23
2019-03-21T09:05:44.675Z,102064.70
2019-03-21T09:08:12.468Z,102056.25
2019-03-21T09:10:40.243Z,102052.75
2019-03-21T09:13:08.035Z,102048.38
2019-03-21T09:15:35.865Z,102036.95
2019-03-21T09:18:03.712Z,102039.33
2019-03-21T09:20:31.475Z,102041.42
2019-03-21T09:22:59.270Z,102043.80
2019-03-21T09:25:27.050Z,102033.81
2019-03-21T09:28:02.519Z,102032.09
2019-03-21T09:30:22.694Z,102029.82
2019-03-21T09:32:50.497Z,102020.66
2019-03-21T09:35:18.280Z,102017.84
2019-03-21T09:37:46.074Z,102011.90
2019-03-21T09:40:13.878Z,102006.88
2019-03-21T09:42:41.705Z,102010.56
2019-03-21T09:45:09.528Z,102002.96
2019-03-21T09:47:37.322Z,102002.27
2019-03-21T09:50:05.149Z,101996.56
2019-03-21T09:52:33.014Z,101991.84
2019-03-21T09:55:00.810Z,101994.11
2019-03-21T09:57:28.625Z,101999.74
2019-03-21T09:59:56.398Z,101998.33
2019-03-21T10:02:24.198Z,101986.26
2019-03-21T10:04:51.966Z,101984.71
2019-03-21T10:07:19.854Z,101983.39
2019-03-21T10:09:47.631Z,101972.60
2019-03-21T10:12:15.426Z,101978.13
2019-03-21T10:14:43.196Z,101966.33
2019-03-21T10:17:11.003Z,101974.22
2019-03-21T10:19:38.870Z,101975.09
2019-03-21T10:22:06.681Z,101964.61
2019-03-21T10:24:34.518Z,101950.88
2019-03-21T10:27:02.290Z,101956.33
2019-03-21T10:29:30.082Z,101952.20
2019-03-21T10:31:57.858Z,101948.84
2019-03-21T10:34:26.086Z,101944.12
2019-03-21T10:36:53.854Z,101938.88
2019-03-21T10:39:21.703Z,101939.23
2019-03-21T10:41:49.622Z,101937.58
2019-03-21T10:44:17.434Z,101933.70
2019-03-21T10:46:45.218Z,101923.70
2019-03-21T10:49:13.050Z,101919.39
2019-03-21T10:51:40.830Z,101910.99
2019-03-21T10:54:08.625Z,101910.28
2019-03-21T10:56:36.426Z,101914.97
2019-03-21T10:59:04.218Z,101909.24
2019-03-21T11:01:32.167Z,101907.66
2019-03-21T11:03:59.966Z,101907.94
2019-03-21T11:06:27.798Z,101910.69
2019-03-21T11:08:55.598Z,101903.12
2019-03-21T11:11:23.374Z,101897.33
2019-03-21T11:13:51.170Z,101893.52
2019-03-21T11:16:18.957Z,101879.92
2019-03-21T11:18:46.758Z,101877.81
2019-03-21T11:21:14.530Z,101884.52
2019-03-21T11:23:42.350Z,101873.84
2019-03-21T11:26:10.127Z,101873.54
2019-03-21T11:28:38.005Z,101873.48
2019-03-21T11:31:05.969Z,101880.02
2019-03-21T11:33:33.754Z,101873.97
2019-03-21T11:36:01.563Z,101873.66
2019-03-21T11:38:29.344Z,101859.33
2019-03-21T11:40:57.168Z,101871.19
2019-03-21T11:43:24.946Z,101864.24
2019-03-21T11:45:55.197Z,101867.96
2019-03-21T11:48:20.619Z,101856.65
2019-03-21T11:50:48.662Z,101850.36
2019-03-21T11:53:16.484Z,101854.64
2019-03-21T11:55:44.359Z,101847.84
2019-03-21T11:58:12.143Z,101854.04
2019-03-21T12:00:44.112Z,101839.41
2019-03-21T12:03:08.865Z,101828.91
2019-03-21T12:05:36.642Z,101837.98
2019-03-21T12:08:04.432Z,101823.86
2019-03-21T12:10:32.246Z,101825.66
2019-03-21T12:13:00.014Z,101818.89
2019-03-21T12:15:27.894Z,101828.25
2019-03-21T12:17:55.727Z,101827.19
2019-03-21T12:20:31.893Z,101816.46
2019-03-21T12:22:59.662Z,101809.30
2019-03-21T12:25:27.473Z,101805.28
2019-03-21T12:27:55.285Z,101800.64
2019-03-21T12:30:30.089Z,101794.19
2019-03-21T12:32:57.863Z,101786.89
2019-03-21T12:35:25.670Z,101787.04
2019-03-21T12:37:53.449Z,101790.98
2019-03-21T12:40:21.287Z,101783.86
2019-03-21T12:42:49.074Z,101781.16
2019-03-21T12:45:16.924Z,101772.81
2019-03-21T12:47:44.787Z,101774.47
2019-03-21T12:50:12.619Z,101765.61
2019-03-21T12:55:08.276Z,101752.11
2019-03-21T12:57:36.166Z,101756.53
2019-03-21T13:00:05.171Z,101747.84
2019-03-21T13:02:32.947Z,101748.81
2019-03-21T13:05:00.746Z,101740.95
2019-03-21T13:07:13.323Z,101761.66
2019-03-21T13:07:28.530Z,101740.17
2019-03-21T13:09:56.315Z,101736.64
2019-03-21T13:12:24.127Z,101727.97
2019-03-21T13:14:51.929Z,101730.92
2019-03-21T13:17:19.726Z,101729.80
2019-03-21T13:19:47.506Z,101730.23
2019-03-21T13:22:15.323Z,101718.57
2019-03-21T13:24:43.090Z,101710.36
2019-03-21T13:27:10.902Z,101707.09
2019-03-21T13:29:38.693Z,101713.44
2019-03-21T13:32:06.492Z,101715.27
2019-03-21T13:34:34.335Z,101721.32
2019-03-21T13:37:02.139Z,101716.39
2019-03-21T13:39:29.918Z,101714.05
2019-03-21T13:41:57.742Z,101706.66
2019-03-21T13:44:25.526Z,101696.28
2019-03-21T13:46:53.389Z,101695.98
2019-03-21T13:49:21.167Z,101686.87
2019-03-21T13:51:48.972Z,101693.43
2019-03-21T13:54:16.784Z,101682.00
2019-03-21T13:56:44.635Z,101677.08
2019-03-21T13:59:12.419Z,101679.25
2019-03-21T14:01:40.211Z,101688.05
2019-03-21T14:04:08.005Z,101669.14
2019-03-21T14:06:35.981Z,101669.34
2019-03-21T14:09:05.499Z,101662.80
2019-03-21T14:11:33.291Z,101660.24
2019-03-21T14:14:01.065Z,101660.34
2019-03-21T14:16:28.894Z,101657.65
2019-03-21T14:18:56.698Z,101650.02
2019-03-21T14:21:24.578Z,101655.18
2019-03-21T14:23:52.367Z,101651.08
2019-03-21T14:26:20.267Z,101650.20
2019-03-21T14:28:48.046Z,101648.55
2019-03-21T14:31:15.857Z,101649.77
2019-03-21T14:33:43.639Z,101637.52
2019-03-21T14:36:11.511Z,101632.92
2019-03-21T14:38:39.298Z,101629.97
2019-03-21T14:41:07.086Z,101632.97
2019-03-21T14:43:34.878Z,101634.44
2019-03-21T14:46:02.660Z,101639.71
2019-03-21T14:48:30.458Z,101624.67
2019-03-21T14:50:58.372Z,101632.72
2019-03-21T14:53:29.184Z,101629.03
2019-03-21T14:55:53.939Z,101636.78
2019-03-21T14:58:21.818Z,101630.41
2019-03-21T15:00:49.617Z,101625.20
2019-03-21T15:03:17.407Z,101616.77
2019-03-21T15:05:45.187Z,101618.70
2019-03-21T15:08:13.069Z,101612.77
2019-03-21T15:10:40.923Z,101618.30
2019-03-21T15:13:08.743Z,101614.55
2019-03-21T15:15:36.527Z,101613.81
2019-03-21T15:18:04.346Z,101603.63
2019-03-21T15:20:32.182Z,101621.16
2019-03-21T15:23:00.063Z,101609.17
2019-03-21T15:25:27.886Z,101607.83
2019-03-21T15:27:55.666Z,101604.86
2019-03-21T15:30:23.445Z,101597.80
2019-03-21T15:32:51.241Z,101601.00
2019-03-21T15:35:19.074Z,101601.20
2019-03-21T15:37:46.959Z,101602.67
2019-03-21T15:40:14.743Z,101602.09
2019-03-21T15:42:42.586Z,101607.27
2019-03-21T15:45:22.115Z,101606.91
2019-03-21T15:47:39.510Z,101603.32
2019-03-21T15:50:08.086Z,101608.80
2019-03-21T15:52:36.091Z,101606.70
2019-03-21T15:55:04.649Z,101604.77
2019-03-21T15:57:32.459Z,101608.98
2019-03-21T16:00:00.373Z,101607.33
2019-03-21T16:02:28.039Z,101610.36
2019-03-21T16:04:55.850Z,101607.09
2019-03-21T16:07:23.639Z,101609.50
2019-03-21T16:09:51.435Z,101612.89
2019-03-21T16:12:19.437Z,101624.72
2019-03-21T16:14:49.245Z,101613.23
2019-03-21T16:17:15.062Z,101608.53
2019-03-21T16:19:42.854Z,101602.29
2019-03-21T16:22:10.717Z,101597.86
2019-03-21T16:24:38.903Z,101602.84
2019-03-21T16:27:06.682Z,101602.42
2019-03-21T16:29:34.531Z,101609.11
2019-03-21T16:32:02.585Z,101604.66
2019-03-21T16:34:30.135Z,101612.58
2019-03-21T16:36:57.888Z,101600.02
2019-03-21T16:39:25.688Z,101603.20
2019-03-21T16:41:53.470Z,101602.50
2019-03-21T16:44:21.264Z,101603.44
2019-03-21T16:46:49.142Z,101608.23
2019-03-21T16:49:17.018Z,101607.37
2019-03-21T16:51:44.799Z,101607.31
2019-03-21T16:54:17.256Z,101605.62
2019-03-21T16:56:40.373Z,101613.62
2019-03-21T16:59:08.162Z,101620.28
2019-03-21T17:01:35.942Z,101626.31
2019-03-21T17:04:03.730Z,101637.42
2019-03-21T17:06:31.504Z,101635.52
2019-03-21T17:08:59.286Z,101641.77
2019-03-21T17:11:27.174Z,101637.48
2019-03-21T17:13:54.950Z,101641.77
2019-03-21T17:16:22.706Z,101644.23
2019-03-21T17:18:50.509Z,101649.38
2019-03-21T17:21:18.292Z,101649.34
2019-03-21T17:23:46.109Z,101653.98
2019-03-21T17:26:15.865Z,101664.20
2019-03-21T17:28:41.662Z,101672.76
2019-03-21T17:31:09.466Z,101675.53
2019-03-21T17:33:37.250Z,101669.70
2019-03-21T17:36:05.058Z,101674.56
2019-03-21T17:38:32.826Z,101678.39
2019-03-21T17:41:00.618Z,101683.38
2019-03-21T17:43:28.406Z,101684.98
2019-03-21T17:45:56.222Z,101686.22
2019-03-21T17:48:23.994Z,101690.30
2019-03-21T17:50:51.806Z,101695.45
2019-03-21T17:53:19.588Z,101701.89
2019-03-21T17:55:47.386Z,101697.51
2019-03-21T17:58:15.435Z,101708.09
2019-03-21T18:00:43.222Z,101703.69
2019-03-21T18:03:11.006Z,101711.41
2019-03-21T18:05:38.810Z,101702.41
2019-03-21T18:08:06.606Z,101708.81
2019-03-21T18:10:34.398Z,101713.08
2019-03-21T18:13:02.206Z,101713.55
2019-03-21T18:15:29.990Z,101719.13
2019-03-21T18:17:57.794Z,101715.20
2019-03-21T18:20:25.594Z,101715.91
2019-03-21T18:22:53.403Z,101715.34
2019-03-21T18:25:21.277Z,101716.29
2019-03-21T18:27:49.051Z,101705.11
2019-03-21T18:30:16.858Z,101709.50
2019-03-21T18:32:44.630Z,101708.56
2019-03-21T18:35:12.527Z,101710.34
2019-03-21T18:37:40.306Z,101713.42
2019-03-21T18:40:08.182Z,101716.98
2019-03-21T18:42:36.006Z,101716.17
2019-03-21T18:45:04.182Z,101713.54
2019-03-21T18:47:31.961Z,101720.87
2019-03-21T18:49:59.847Z,101724.93
2019-03-21T18:52:27.627Z,101722.20
2019-03-21T18:55:05.719Z,101732.39
2019-03-21T18:57:24.350Z,101741.83
2019-03-21T18:59:52.180Z,101732.02
2019-03-21T19:02:20.034Z,101730.62
2019-03-21T19:04:47.826Z,101732.04
2019-03-21T19:07:15.762Z,101732.81
2019-03-21T19:09:44.122Z,101728.63
2019-03-21T19:12:11.322Z,101722.19
2019-03-21T19:14:39.086Z,101724.42
2019-03-21T19:17:06.886Z,101725.67
2019-03-21T19:19:34.660Z,101730.99
2019-03-21T19:22:02.461Z,101731.56
2019-03-21T19:24:30.234Z,101732.16
2019-03-21T19:26:58.031Z,101737.32
2019-03-21T19:29:25.802Z,101739.52
2019-03-21T19:31:53.604Z,101737.55
2019-03-21T19:34:21.374Z,101733.08
2019-03-21T19:36:49.154Z,101728.52
2019-03-21T19:39:16.926Z,101732.37
2019-03-21T19:41:44.807Z,101721.52
2019-03-21T19:44:12.586Z,101721.05
2019-03-21T19:46:40.514Z,101718.91
2019-03-21T19:49:08.280Z,101718.80
2019-03-21T19:51:36.070Z,101723.69
2019-03-21T19:54:03.922Z,101715.58
2019-03-21T19:56:31.707Z,101718.19
2019-03-21T19:59:01.144Z,101726.73
2019-03-21T20:01:27.254Z,101714.97
2019-03-21T20:03:55.034Z,101720.11
2019-03-21T20:06:22.822Z,101721.73
2019-03-21T20:08:50.594Z,101726.80
2019-03-21T20:11:18.383Z,101720.66
2019-03-21T20:13:46.153Z,101725.45
2019-03-21T20:18:53.198Z,101732.41
2019-03-21T20:21:21.340Z,101739.52
2019-03-21T20:23:49.191Z,101739.48
2019-03-21T20:26:17.014Z,101742.15
2019-03-21T20:28:44.811Z,101746.57
2019-03-21T20:31:13.490Z,101746.34
2019-03-21T20:33:41.305Z,101754.83
2019-03-21T20:36:09.110Z,101766.35
2019-03-21T20:38:36.948Z,101764.22
2019-03-21T20:41:04.758Z,101761.42
2019-03-21T20:43:39.898Z,101754.67
2019-03-21T20:46:10.322Z,101762.80
2019-03-21T20:48:38.786Z,101752.91
2019-03-21T20:51:08.784Z,101754.65
2019-03-21T20:53:37.724Z,101749.69
2019-03-21T20:56:10.677Z,101746.56
2019-03-21T20:58:42.728Z,101752.70
2019-03-21T21:01:14.068Z,101749.38
2019-03-21T21:03:44.400Z,101751.80
2019-03-21T21:06:12.556Z,101752.44
2019-03-21T21:11:25.604Z,101756.31
2019-03-21T21:13:51.814Z,101757.83
2019-03-21T21:16:24.067Z,101757.85
2019-03-21T21:18:55.207Z,101760.98
2019-03-21T21:21:24.730Z,101757.47
2019-03-21T21:23:59.118Z,101761.56
2019-03-21T21:26:30.097Z,101763.50
2019-03-21T21:28:59.898Z,101763.77
2019-03-21T21:31:29.617Z,101757.84
2019-03-21T21:34:00.116Z,101758.95
2019-03-21T21:36:30.678Z,101752.95
2019-03-21T21:39:02.405Z,101757.62
2019-03-21T21:41:31.011Z,101753.11
2019-03-21T21:44:00.100Z,101757.30
2019-03-21T21:46:34.523Z,101752.02
2019-03-21T21:49:07.435Z,101752.72
2019-03-21T21:51:35.487Z,101744.07
2019-03-21T21:54:06.738Z,101752.91
2019-03-21T21:56:40.625Z,101749.45
2019-03-21T21:59:10.635Z,101749.22
2019-03-21T22:01:42.255Z,101754.78
2019-03-21T22:06:52.279Z,101759.05
2019-03-21T22:09:21.742Z,101754.70
2019-03-21T22:11:57.852Z,101760.25
2019-03-21T22:14:26.673Z,101760.06
2019-03-21T22:16:56.961Z,101764.21
2019-03-21T22:19:30.190Z,101760.04
2019-03-21T22:22:00.287Z,101760.97
2019-03-21T22:24:34.319Z,101760.77
2019-03-21T22:27:03.052Z,101770.18
2019-03-21T22:29:31.899Z,101777.46
2019-03-21T22:32:03.402Z,101770.91
2019-03-21T22:34:36.616Z,101768.73
2019-03-21T22:37:10.449Z,101769.72
2019-03-21T22:39:44.603Z,101777.59
2019-03-21T22:42:16.115Z,101780.88
2019-03-21T22:44:47.639Z,101776.13
2019-03-21T22:47:15.489Z,101781.07
2019-03-21T22:49:48.294Z,101780.09
2019-03-21T22:52:20.378Z,101771.17
2019-03-21T22:55:01.413Z,101765.95
2019-03-21T23:00:13.200Z,101758.87
2019-03-21T23:02:42.632Z,101755.59
2019-03-21T23:05:18.069Z,101758.42
2019-03-21T23:07:51.533Z,101749.13
2019-03-21T23:10:30.570Z,101753.64
2019-03-21T23:15:41.249Z,101759.02
2019-03-21T23:18:13.217Z,101757.39
2019-03-21T23:20:43.437Z,101750.07
2019-03-21T23:23:16.982Z,101748.95
2019-03-21T23:25:47.979Z,101747.80
2019-03-21T23:28:19.125Z,101741.30
2019-03-21T23:30:49.877Z,101741.47
2019-03-21T23:33:26.852Z,101746.41
2019-03-21T23:36:01.571Z,101742.47
2019-03-21T23:41:12.699Z,101735.37
2019-03-21T23:43:47.546Z,101725.50
2019-03-21T23:46:17.412Z,101726.20
2019-03-21T23:48:48.766Z,101721.84
2019-03-21T23:51:20.245Z,101722.39
2019-03-21T23:54:43.627Z,101718.34
2019-03-21T23:57:14.653Z,101718.37
2019-03-21T23:59:45.028Z,101722.63
